Unityville, Pennsylvania
Current Conditions -  °F | °C
As of 3:54 AM on Sunday 23 Nov 2014 (Local Time) from KIPT Reporting Station
Haze Haze  
Wind Chill: 32°   Ceiling: 5500
Heat Index: 32°   Visibility: 6mi
Dew Point: 29°   Wind: 0mph
Humidity: 88%   Direction: NA
Pressure: 30.15"   Gusts: NA
Location:  41.23°N, 76.52°W
Report Text: KIPT 230854Z AUTO 00000KT 6SM BR BKN055 OVC070 00/M02 A3015 RMK AO2 SLP214 T00001017 58001
Loading
Personal Weather Stations






























Interactive Weather Map New forecast layout! Learn more

10-Day Weather Forecast

Advertisements
Track Severe Weather on mobile